Terminal Aerodrome Forecast
Issued by NWS St Louis, MO

Home | Current Version | Previous Version | Text Only | Print | Product List | Glossary On
Versions: 1 2 3 4 5 6 7 8 9 10 11 12 13 14 15 16
000
FTUS43 KLSX 131121
TAFCOU
TAF
KCOU 131121Z 1312/1412 20011KT P6SM SKC WS020/24045KT
     FM131500 24015G24KT P6SM SKC
     FM131700 28017G27KT P6SM FEW150
     FM132300 31016G23KT P6SM SCT030
     FM140600 33008KT P6SM BKN035=

USA.gov is the U.S. government's official web portal to all federal, state and local government web resources and services.